• Join FlightAware (Why Join?)
  • Login
  • US Flag 
09:06PM EDT


 

Airport Tracker/Info


-or-


 

Live Flight TrackerFlight Track Log ✈ EJM685 ✈ 26-Apr-2014 ✈ KTEB - KBOS

Flight Track Log - Related Links

Times and Time Zones

All times are in EDT time to prevent confusion due to time zone crossing. See the EJM685 flight status page for this flight to view local times or setup timezone preferences in your user account.

Time Position Orientation Groundspeed Altitude Reporting Facility
EDT Latitude Longitude Course Direction KTS MPH feet Rate Location/Type
12:30PM 40.8833 -74.0500 360° North 178 205 1,900  Level New York TRACON
12:31PM 40.9333 -74.0500 North 209 241 3,700 1,920 Climbing New York TRACON
12:32PM 40.9833 -74.1000 323° Northwest 251 289 5,800 2,220 Climbing New York TRACON
12:33PM 41.0500 -74.0833 11° North 259 298 8,400 1,980 Climbing New York TRACON
12:35PM 41.1236 -73.9319 57° Northeast 329 379 11,100 1,020 Climbing Boston Center
12:36PM 41.1758 -73.8142 59° Northeast 365 420 11,100 120 Level Boston Center
12:37PM 41.2228 -73.6875 64° Northeast 362 417 11,400 660 Climbing Boston Center
12:38PM 41.2592 -73.5592 69° East 370 426 12,500 1,320 Climbing Boston Center
12:39PM 41.2978 -73.4283 69° East 378 435 14,200 1,620 Climbing Boston Center
12:40PM 41.3397 -73.2847 69° East 397 457 15,900 1,380 Climbing Boston Center
12:41PM 41.3767 -73.1439 71° East 406 467 17,100 1,380 Climbing Boston Center
12:42PM 41.4094 -72.9844 75° East 416 479 18,800 900 Climbing Boston Center
12:43PM 41.4414 -72.8361 74° East 417 480 19,000 60 Climbing Boston Center
12:44PM 41.4719 -72.6897 74° East 417 480 19,000  Level Boston Center
12:45PM 41.5019 -72.5417 75° East 416 479 19,000  Level Boston Center
12:46PM 41.5353 -72.3817 74° East 416 479 19,000  Level Boston Center
12:47PM 41.5664 -72.2292 75° East 416 479 19,000 -120 Level Boston Center
12:48PM 41.5953 -72.0819 75° East 415 478 18,800 -960 Descending Boston Center
12:49PM 41.6250 -71.9372 75° East 408 470 17,100 -1,680 Descending Boston Center
12:50PM 41.6531 -71.7956 75° East 400 460 15,400 -1,740 Descending Boston Center
12:51PM 41.6828 -71.6461 75° East 393 452 13,600 -1,620 Descending Boston Center
12:52PM 41.7061 -71.5244 76° East 348 400 12,200 -1,320 Descending Boston Center
12:53PM 41.7358 -71.4050 72° East 315 362 11,000 -600 Descending Boston Center
12:54PM 41.7811 -71.3108 57° Northeast 305 351 11,000 -60 Level Boston Center
12:55PM 41.8478 -71.2564 31° Northeast 280 322 10,900 -900 Descending Boston Center
12:56PM 41.9144 -71.2236 20° North 260 299 9,200 -1,500 Descending Boston Center
12:57PM 41.9856 -71.1878 21° North 256 295 7,900 -1,200 Descending Boston Center
12:58PM 42.0481 -71.1589 19° North 242 278 6,800 -1,200 Descending Boston Center
12:59PM 42.1097 -71.1283 20° North 239 275 5,500 -1,380 Descending Boston Center
01:00PM 42.1731 -71.0972 20° North 225 259 4,100 -1,260 Descending Boston Center
01:01PM 42.2219 -71.0753 18° North 189 217 3,000 -1,080 Descending Boston Center
01:02PM 42.2669 -71.0533 20° North 178 205 2,000 -960 Descending Boston Center
01:03PM 42.3067 -71.0347 19° North 164 189 1,100 -780 Descending Boston Center
01:04PM 42.3367 -71.0189 21° North 138 159 500 -480 Descending Boston Center
01:05PM 42.3664 -71.0025 22° Northeast 133 153 200 -300 Descending Boston Center
01:07PM 42.3630 -71.0064 North  Level Estimated